sensor_id;sensor_type;location;lat;lon;timestamp;P1;durP1;ratioP1;P2;durP2;ratioP2
16416;SDS011;8317;52.186;5.688;2023-06-14T00:01:58;4.93;;;2.35;;
16416;SDS011;8317;52.186;5.688;2023-06-14T00:04:25;3.28;;;1.95;;
16416;SDS011;8317;52.186;5.688;2023-06-14T00:06:52;6.30;;;2.17;;
16416;SDS011;8317;52.186;5.688;2023-06-14T00:09:21;5.15;;;2.33;;
16416;SDS011;8317;52.186;5.688;2023-06-14T00:11:48;7.55;;;1.88;;
16416;SDS011;8317;52.186;5.688;2023-06-14T00:14:15;2.70;;;1.73;;
16416;SDS011;8317;52.186;5.688;2023-06-14T00:16:43;3.55;;;1.60;;
16416;SDS011;8317;52.186;5.688;2023-06-14T00:19:10;6.03;;;2.00;;
16416;SDS011;8317;52.186;5.688;2023-06-14T00:21:37;2.42;;;2.00;;
16416;SDS011;8317;52.186;5.688;2023-06-14T00:24:04;7.30;;;2.00;;
16416;SDS011;8317;52.186;5.688;2023-06-14T00:26:31;2.00;;;1.80;;
16416;SDS011;8317;52.186;5.688;2023-06-14T00:28:58;2.60;;;2.05;;
16416;SDS011;8317;52.186;5.688;2023-06-14T00:31:25;4.15;;;1.73;;
16416;SDS011;8317;52.186;5.688;2023-06-14T00:33:53;3.92;;;2.05;;
16416;SDS011;8317;52.186;5.688;2023-06-14T00:36:20;3.25;;;2.03;;
16416;SDS011;8317;52.186;5.688;2023-06-14T00:38:47;3.88;;;2.05;;
16416;SDS011;8317;52.186;5.688;2023-06-14T00:41:14;4.00;;;1.73;;
16416;SDS011;8317;52.186;5.688;2023-06-14T00:43:41;6.45;;;2.42;;
16416;SDS011;8317;52.186;5.688;2023-06-14T00:46:08;5.20;;;2.00;;
16416;SDS011;8317;52.186;5.688;2023-06-14T00:48:35;4.38;;;2.08;;
16416;SDS011;8317;52.186;5.688;2023-06-14T00:51:04;6.43;;;1.85;;
16416;SDS011;8317;52.186;5.688;2023-06-14T00:53:31;4.13;;;1.95;;
16416;SDS011;8317;52.186;5.688;2023-06-14T00:56:01;2.25;;;2.00;;
16416;SDS011;8317;52.186;5.688;2023-06-14T00:58:28;2.78;;;1.83;;
16416;SDS011;8317;52.186;5.688;2023-06-14T01:00:56;3.97;;;1.77;;
16416;SDS011;8317;52.186;5.688;2023-06-14T01:03:23;5.57;;;1.88;;
16416;SDS011;8317;52.186;5.688;2023-06-14T01:05:51;3.92;;;2.03;;
16416;SDS011;8317;52.186;5.688;2023-06-14T01:08:31;5.45;;;2.03;;
16416;SDS011;8317;52.186;5.688;2023-06-14T01:11:18;3.00;;;1.73;;
16416;SDS011;8317;52.186;5.688;2023-06-14T01:13:52;2.90;;;1.85;;
16416;SDS011;8317;52.186;5.688;2023-06-14T01:16:22;3.95;;;1.67;;
16416;SDS011;8317;52.186;5.688;2023-06-14T01:18:49;2.83;;;1.85;;
16416;SDS011;8317;52.186;5.688;2023-06-14T01:21:21;2.17;;;1.98;;
16416;SDS011;8317;52.186;5.688;2023-06-14T01:23:50;2.33;;;1.65;;
16416;SDS011;8317;52.186;5.688;2023-06-14T01:26:18;10.02;;;2.20;;
16416;SDS011;8317;52.186;5.688;2023-06-14T01:28:46;2.25;;;1.63;;
16416;SDS011;8317;52.186;5.688;2023-06-14T01:31:16;4.38;;;1.63;;
16416;SDS011;8317;52.186;5.688;2023-06-14T01:33:44;3.45;;;1.83;;
16416;SDS011;8317;52.186;5.688;2023-06-14T01:36:12;5.10;;;1.70;;
16416;SDS011;8317;52.186;5.688;2023-06-14T01:38:40;4.55;;;1.85;;
16416;SDS011;8317;52.186;5.688;2023-06-14T01:41:11;4.68;;;1.90;;
16416;SDS011;8317;52.186;5.688;2023-06-14T01:43:39;2.55;;;1.50;;
16416;SDS011;8317;52.186;5.688;2023-06-14T01:46:08;3.47;;;1.90;;
16416;SDS011;8317;52.186;5.688;2023-06-14T01:48:35;4.38;;;1.83;;
16416;SDS011;8317;52.186;5.688;2023-06-14T01:51:02;2.72;;;1.90;;
16416;SDS011;8317;52.186;5.688;2023-06-14T01:53:29;7.22;;;2.10;;
16416;SDS011;8317;52.186;5.688;2023-06-14T01:55:56;6.75;;;1.83;;
16416;SDS011;8317;52.186;5.688;2023-06-14T01:58:25;4.15;;;2.10;;
16416;SDS011;8317;52.186;5.688;2023-06-14T02:00:52;2.58;;;1.50;;
16416;SDS011;8317;52.186;5.688;2023-06-14T02:03:20;2.75;;;1.98;;
16416;SDS011;8317;52.186;5.688;2023-06-14T02:05:48;5.15;;;2.00;;
16416;SDS011;8317;52.186;5.688;2023-06-14T02:08:15;3.30;;;1.67;;
16416;SDS011;8317;52.186;5.688;2023-06-14T02:10:42;2.70;;;1.77;;
16416;SDS011;8317;52.186;5.688;2023-06-14T02:13:08;2.85;;;2.03;;
16416;SDS011;8317;52.186;5.688;2023-06-14T02:15:38;2.92;;;2.00;;
16416;SDS011;8317;52.186;5.688;2023-06-14T02:18:05;4.35;;;2.55;;
16416;SDS011;8317;52.186;5.688;2023-06-14T02:20:32;2.35;;;1.55;;
16416;SDS011;8317;52.186;5.688;2023-06-14T02:22:59;3.90;;;1.70;;
16416;SDS011;8317;52.186;5.688;2023-06-14T02:25:26;3.42;;;1.60;;
16416;SDS011;8317;52.186;5.688;2023-06-14T02:27:53;2.30;;;1.88;;
16416;SDS011;8317;52.186;5.688;2023-06-14T02:30:21;3.70;;;1.95;;
16416;SDS011;8317;52.186;5.688;2023-06-14T02:32:49;4.72;;;1.70;;
16416;SDS011;8317;52.186;5.688;2023-06-14T02:35:18;3.25;;;1.75;;
16416;SDS011;8317;52.186;5.688;2023-06-14T02:37:47;8.60;;;2.30;;
16416;SDS011;8317;52.186;5.688;2023-06-14T02:40:14;5.10;;;1.90;;
16416;SDS011;8317;52.186;5.688;2023-06-14T02:42:41;4.30;;;1.80;;
16416;SDS011;8317;52.186;5.688;2023-06-14T02:45:08;2.55;;;1.65;;
16416;SDS011;8317;52.186;5.688;2023-06-14T02:47:35;3.42;;;1.60;;
16416;SDS011;8317;52.186;5.688;2023-06-14T02:50:03;2.10;;;1.65;;
16416;SDS011;8317;52.186;5.688;2023-06-14T02:52:31;3.17;;;1.88;;
16416;SDS011;8317;52.186;5.688;2023-06-14T02:54:59;2.15;;;1.58;;
16416;SDS011;8317;52.186;5.688;2023-06-14T02:57:26;2.55;;;2.00;;
16416;SDS011;8317;52.186;5.688;2023-06-14T02:59:52;2.55;;;1.85;;
16416;SDS011;8317;52.186;5.688;2023-06-14T03:02:20;2.47;;;1.70;;
16416;SDS011;8317;52.186;5.688;2023-06-14T03:04:46;3.55;;;1.85;;
16416;SDS011;8317;52.186;5.688;2023-06-14T03:07:15;2.03;;;1.80;;
16416;SDS011;8317;52.186;5.688;2023-06-14T03:09:44;1.52;;;1.42;;
16416;SDS011;8317;52.186;5.688;2023-06-14T03:12:12;2.40;;;1.80;;
16416;SDS011;8317;52.186;5.688;2023-06-14T03:14:40;2.20;;;1.52;;
16416;SDS011;8317;52.186;5.688;2023-06-14T03:17:07;3.08;;;1.45;;
16416;SDS011;8317;52.186;5.688;2023-06-14T03:19:34;3.95;;;2.42;;
16416;SDS011;8317;52.186;5.688;2023-06-14T03:22:01;6.25;;;2.15;;
16416;SDS011;8317;52.186;5.688;2023-06-14T03:24:30;3.95;;;2.03;;
16416;SDS011;8317;52.186;5.688;2023-06-14T03:27:01;8.73;;;2.10;;
16416;SDS011;8317;52.186;5.688;2023-06-14T03:29:28;2.28;;;1.60;;
16416;SDS011;8317;52.186;5.688;2023-06-14T03:31:57;2.55;;;2.00;;
16416;SDS011;8317;52.186;5.688;2023-06-14T03:34:25;8.50;;;1.98;;
16416;SDS011;8317;52.186;5.688;2023-06-14T03:36:52;3.70;;;2.10;;
16416;SDS011;8317;52.186;5.688;2023-06-14T03:39:19;3.85;;;1.77;;
16416;SDS011;8317;52.186;5.688;2023-06-14T03:41:47;9.77;;;2.13;;
16416;SDS011;8317;52.186;5.688;2023-06-14T03:44:15;2.75;;;1.60;;
16416;SDS011;8317;52.186;5.688;2023-06-14T03:46:43;2.65;;;1.77;;
16416;SDS011;8317;52.186;5.688;2023-06-14T03:49:10;10.07;;;2.10;;
16416;SDS011;8317;52.186;5.688;2023-06-14T03:51:37;2.70;;;1.80;;
16416;SDS011;8317;52.186;5.688;2023-06-14T03:54:04;3.25;;;2.15;;
16416;SDS011;8317;52.186;5.688;2023-06-14T03:56:31;1.73;;;1.60;;
16416;SDS011;8317;52.186;5.688;2023-06-14T03:58:59;2.78;;;1.73;;
16416;SDS011;8317;52.186;5.688;2023-06-14T04:01:27;3.00;;;1.98;;
16416;SDS011;8317;52.186;5.688;2023-06-14T04:03:55;2.70;;;2.17;;
16416;SDS011;8317;52.186;5.688;2023-06-14T04:06:22;4.10;;;2.38;;
16416;SDS011;8317;52.186;5.688;2023-06-14T04:08:56;3.45;;;1.92;;
16416;SDS011;8317;52.186;5.688;2023-06-14T04:11:29;4.82;;;1.83;;
16416;SDS011;8317;52.186;5.688;2023-06-14T04:13:56;5.85;;;2.13;;
16416;SDS011;8317;52.186;5.688;2023-06-14T04:16:25;3.72;;;1.95;;
16416;SDS011;8317;52.186;5.688;2023-06-14T04:18:53;6.05;;;1.80;;
16416;SDS011;8317;52.186;5.688;2023-06-14T04:21:20;2.53;;;2.13;;
16416;SDS011;8317;52.186;5.688;2023-06-14T04:23:48;4.43;;;2.28;;
16416;SDS011;8317;52.186;5.688;2023-06-14T04:26:17;1.98;;;1.70;;
16416;SDS011;8317;52.186;5.688;2023-06-14T04:28:44;5.72;;;2.13;;
16416;SDS011;8317;52.186;5.688;2023-06-14T04:31:12;2.50;;;2.30;;
16416;SDS011;8317;52.186;5.688;2023-06-14T04:33:40;2.30;;;2.08;;
16416;SDS011;8317;52.186;5.688;2023-06-14T04:36:10;2.88;;;1.70;;
16416;SDS011;8317;52.186;5.688;2023-06-14T04:38:38;2.75;;;1.88;;
16416;SDS011;8317;52.186;5.688;2023-06-14T04:41:06;5.25;;;1.67;;
16416;SDS011;8317;52.186;5.688;2023-06-14T04:43:36;3.70;;;1.90;;
16416;SDS011;8317;52.186;5.688;2023-06-14T04:46:04;4.15;;;1.63;;
16416;SDS011;8317;52.186;5.688;2023-06-14T04:48:34;2.42;;;2.22;;
16416;SDS011;8317;52.186;5.688;2023-06-14T04:51:02;1.48;;;1.38;;
16416;SDS011;8317;52.186;5.688;2023-06-14T04:53:30;1.60;;;1.50;;
16416;SDS011;8317;52.186;5.688;2023-06-14T04:55:56;3.42;;;1.45;;
16416;SDS011;8317;52.186;5.688;2023-06-14T04:58:23;2.67;;;1.70;;
16416;SDS011;8317;52.186;5.688;2023-06-14T05:00:50;2.30;;;1.90;;
16416;SDS011;8317;52.186;5.688;2023-06-14T05:03:18;8.43;;;1.63;;
16416;SDS011;8317;52.186;5.688;2023-06-14T05:05:46;2.53;;;1.83;;
16416;SDS011;8317;52.186;5.688;2023-06-14T05:08:14;4.88;;;2.42;;
16416;SDS011;8317;52.186;5.688;2023-06-14T05:10:41;2.08;;;1.65;;
16416;SDS011;8317;52.186;5.688;2023-06-14T05:13:08;5.15;;;1.88;;
16416;SDS011;8317;52.186;5.688;2023-06-14T05:15:35;3.40;;;1.90;;
16416;SDS011;8317;52.186;5.688;2023-06-14T05:18:02;4.32;;;1.88;;
16416;SDS011;8317;52.186;5.688;2023-06-14T05:20:29;2.67;;;2.10;;
16416;SDS011;8317;52.186;5.688;2023-06-14T05:22:56;2.85;;;2.17;;
16416;SDS011;8317;52.186;5.688;2023-06-14T05:25:24;3.65;;;2.13;;
16416;SDS011;8317;52.186;5.688;2023-06-14T05:27:53;2.45;;;1.95;;
16416;SDS011;8317;52.186;5.688;2023-06-14T05:30:20;3.47;;;2.05;;
16416;SDS011;8317;52.186;5.688;2023-06-14T05:32:47;2.38;;;1.85;;
16416;SDS011;8317;52.186;5.688;2023-06-14T05:35:15;2.85;;;2.20;;
16416;SDS011;8317;52.186;5.688;2023-06-14T05:37:42;2.33;;;1.73;;
16416;SDS011;8317;52.186;5.688;2023-06-14T05:40:09;2.45;;;1.80;;
16416;SDS011;8317;52.186;5.688;2023-06-14T05:42:38;2.15;;;1.77;;
16416;SDS011;8317;52.186;5.688;2023-06-14T05:45:05;4.28;;;2.20;;
16416;SDS011;8317;52.186;5.688;2023-06-14T05:47:32;2.08;;;1.85;;
16416;SDS011;8317;52.186;5.688;2023-06-14T05:49:59;3.22;;;2.70;;
16416;SDS011;8317;52.186;5.688;2023-06-14T05:52:26;3.33;;;1.55;;
16416;SDS011;8317;52.186;5.688;2023-06-14T05:54:54;4.55;;;1.77;;
16416;SDS011;8317;52.186;5.688;2023-06-14T05:57:21;2.65;;;2.00;;
16416;SDS011;8317;52.186;5.688;2023-06-14T05:59:49;4.63;;;1.98;;
16416;SDS011;8317;52.186;5.688;2023-06-14T06:02:16;3.60;;;2.20;;
16416;SDS011;8317;52.186;5.688;2023-06-14T06:04:43;3.67;;;2.03;;
16416;SDS011;8317;52.186;5.688;2023-06-14T06:07:10;9.50;;;1.70;;
16416;SDS011;8317;52.186;5.688;2023-06-14T06:09:37;5.13;;;1.60;;
16416;SDS011;8317;52.186;5.688;2023-06-14T06:12:06;2.10;;;1.52;;
16416;SDS011;8317;52.186;5.688;2023-06-14T06:14:33;3.38;;;1.73;;
16416;SDS011;8317;52.186;5.688;2023-06-14T06:17:01;1.80;;;1.63;;
16416;SDS011;8317;52.186;5.688;2023-06-14T06:19:28;5.93;;;1.80;;
16416;SDS011;8317;52.186;5.688;2023-06-14T06:21:55;6.63;;;1.90;;
16416;SDS011;8317;52.186;5.688;2023-06-14T06:24:22;2.47;;;1.60;;
16416;SDS011;8317;52.186;5.688;2023-06-14T06:26:49;2.42;;;1.63;;
16416;SDS011;8317;52.186;5.688;2023-06-14T06:29:16;4.30;;;1.65;;
16416;SDS011;8317;52.186;5.688;2023-06-14T06:31:42;2.45;;;1.80;;
16416;SDS011;8317;52.186;5.688;2023-06-14T06:34:12;9.38;;;1.90;;
16416;SDS011;8317;52.186;5.688;2023-06-14T06:36:40;2.80;;;2.30;;
16416;SDS011;8317;52.186;5.688;2023-06-14T06:39:07;8.85;;;1.70;;
16416;SDS011;8317;52.186;5.688;2023-06-14T06:41:35;6.30;;;2.33;;
16416;SDS011;8317;52.186;5.688;2023-06-14T06:44:03;2.08;;;1.88;;
16416;SDS011;8317;52.186;5.688;2023-06-14T06:46:30;4.22;;;1.50;;
16416;SDS011;8317;52.186;5.688;2023-06-14T06:48:58;7.82;;;2.00;;
16416;SDS011;8317;52.186;5.688;2023-06-14T06:51:26;4.90;;;1.90;;
16416;SDS011;8317;52.186;5.688;2023-06-14T06:53:53;9.15;;;2.17;;
16416;SDS011;8317;52.186;5.688;2023-06-14T06:56:20;6.05;;;2.65;;
16416;SDS011;8317;52.186;5.688;2023-06-14T06:58:48;2.00;;;1.50;;
16416;SDS011;8317;52.186;5.688;2023-06-14T07:01:15;2.33;;;1.63;;
16416;SDS011;8317;52.186;5.688;2023-06-14T07:03:42;2.08;;;1.48;;
16416;SDS011;8317;52.186;5.688;2023-06-14T07:06:09;3.05;;;1.63;;
16416;SDS011;8317;52.186;5.688;2023-06-14T07:08:37;4.00;;;1.90;;
16416;SDS011;8317;52.186;5.688;2023-06-14T07:11:04;1.50;;;1.40;;
16416;SDS011;8317;52.186;5.688;2023-06-14T07:13:32;2.30;;;1.67;;
16416;SDS011;8317;52.186;5.688;2023-06-14T07:15:59;1.75;;;1.40;;
16416;SDS011;8317;52.186;5.688;2023-06-14T07:18:26;1.63;;;1.45;;
16416;SDS011;8317;52.186;5.688;2023-06-14T07:20:53;1.92;;;1.77;;
16416;SDS011;8317;52.186;5.688;2023-06-14T07:23:21;6.50;;;1.77;;
16416;SDS011;8317;52.186;5.688;2023-06-14T07:25:49;1.63;;;1.38;;
16416;SDS011;8317;52.186;5.688;2023-06-14T07:28:16;2.35;;;1.42;;
16416;SDS011;8317;52.186;5.688;2023-06-14T07:30:43;2.13;;;1.20;;
16416;SDS011;8317;52.186;5.688;2023-06-14T07:33:10;1.35;;;1.20;;
16416;SDS011;8317;52.186;5.688;2023-06-14T07:35:38;2.72;;;1.20;;
16416;SDS011;8317;52.186;5.688;2023-06-14T07:38:05;6.13;;;1.48;;
16416;SDS011;8317;52.186;5.688;2023-06-14T07:40:32;2.88;;;1.20;;
16416;SDS011;8317;52.186;5.688;2023-06-14T07:43:00;2.58;;;1.30;;
16416;SDS011;8317;52.186;5.688;2023-06-14T07:45:27;1.40;;;1.30;;
16416;SDS011;8317;52.186;5.688;2023-06-14T07:47:54;2.00;;;1.30;;
16416;SDS011;8317;52.186;5.688;2023-06-14T07:50:21;1.65;;;1.42;;
16416;SDS011;8317;52.186;5.688;2023-06-14T07:52:48;1.30;;;1.20;;
16416;SDS011;8317;52.186;5.688;2023-06-14T07:55:15;1.52;;;1.20;;
16416;SDS011;8317;52.186;5.688;2023-06-14T07:57:42;4.28;;;1.55;;
16416;SDS011;8317;52.186;5.688;2023-06-14T08:00:12;1.90;;;1.60;;
16416;SDS011;8317;52.186;5.688;2023-06-14T08:02:40;2.38;;;1.23;;
16416;SDS011;8317;52.186;5.688;2023-06-14T08:05:08;1.38;;;1.13;;
16416;SDS011;8317;52.186;5.688;2023-06-14T08:07:36;1.15;;;1.05;;
16416;SDS011;8317;52.186;5.688;2023-06-14T08:10:03;1.20;;;1.10;;
16416;SDS011;8317;52.186;5.688;2023-06-14T08:12:31;2.38;;;1.20;;
16416;SDS011;8317;52.186;5.688;2023-06-14T08:14:59;9.55;;;1.30;;
16416;SDS011;8317;52.186;5.688;2023-06-14T08:17:27;1.30;;;1.17;;
16416;SDS011;8317;52.186;5.688;2023-06-14T08:19:54;1.83;;;1.20;;
16416;SDS011;8317;52.186;5.688;2023-06-14T08:22:22;1.27;;;1.17;;
16416;SDS011;8317;52.186;5.688;2023-06-14T08:24:51;1.10;;;1.00;;
16416;SDS011;8317;52.186;5.688;2023-06-14T08:27:19;4.20;;;1.20;;
16416;SDS011;8317;52.186;5.688;2023-06-14T08:29:46;2.40;;;0.95;;
16416;SDS011;8317;52.186;5.688;2023-06-14T08:32:12;1.50;;;1.20;;
16416;SDS011;8317;52.186;5.688;2023-06-14T08:34:41;1.25;;;1.13;;
16416;SDS011;8317;52.186;5.688;2023-06-14T08:37:08;1.00;;;1.00;;
16416;SDS011;8317;52.186;5.688;2023-06-14T08:39:34;1.38;;;1.20;;
16416;SDS011;8317;52.186;5.688;2023-06-14T08:42:02;1.35;;;1.10;;
16416;SDS011;8317;52.186;5.688;2023-06-14T08:44:31;3.83;;;1.52;;
16416;SDS011;8317;52.186;5.688;2023-06-14T08:46:58;1.20;;;1.10;;
16416;SDS011;8317;52.186;5.688;2023-06-14T08:49:26;4.20;;;1.08;;
16416;SDS011;8317;52.186;5.688;2023-06-14T08:51:59;1.30;;;1.20;;
16416;SDS011;8317;52.186;5.688;2023-06-14T08:54:27;1.33;;;1.23;;
16416;SDS011;8317;52.186;5.688;2023-06-14T08:56:56;1.48;;;1.20;;
16416;SDS011;8317;52.186;5.688;2023-06-14T08:59:23;2.00;;;1.10;;
16416;SDS011;8317;52.186;5.688;2023-06-14T09:01:51;2.47;;;1.00;;
16416;SDS011;8317;52.186;5.688;2023-06-14T09:04:19;1.73;;;1.15;;
16416;SDS011;8317;52.186;5.688;2023-06-14T09:06:46;1.60;;;1.30;;
16416;SDS011;8317;52.186;5.688;2023-06-14T09:09:19;1.77;;;1.20;;
16416;SDS011;8317;52.186;5.688;2023-06-14T09:11:48;2.80;;;1.00;;
16416;SDS011;8317;52.186;5.688;2023-06-14T09:14:15;5.07;;;1.33;;
16416;SDS011;8317;52.186;5.688;2023-06-14T09:16:43;1.60;;;1.50;;
16416;SDS011;8317;52.186;5.688;2023-06-14T09:19:11;2.17;;;1.30;;
16416;SDS011;8317;52.186;5.688;2023-06-14T09:21:47;1.13;;;1.02;;
16416;SDS011;8317;52.186;5.688;2023-06-14T09:24:14;1.45;;;1.20;;
16416;SDS011;8317;52.186;5.688;2023-06-14T09:26:43;1.33;;;1.10;;
16416;SDS011;8317;52.186;5.688;2023-06-14T09:29:12;1.48;;;1.25;;
16416;SDS011;8317;52.186;5.688;2023-06-14T09:31:39;0.80;;;0.80;;
16416;SDS011;8317;52.186;5.688;2023-06-14T09:34:07;4.45;;;1.73;;
16416;SDS011;8317;52.186;5.688;2023-06-14T09:36:35;1.92;;;1.02;;
16416;SDS011;8317;52.186;5.688;2023-06-14T09:39:02;0.90;;;0.90;;
16416;SDS011;8317;52.186;5.688;2023-06-14T09:41:31;1.75;;;0.75;;
16416;SDS011;8317;52.186;5.688;2023-06-14T09:44:00;1.23;;;1.13;;
16416;SDS011;8317;52.186;5.688;2023-06-14T09:46:29;1.80;;;1.30;;
16416;SDS011;8317;52.186;5.688;2023-06-14T09:48:57;1.63;;;1.10;;
16416;SDS011;8317;52.186;5.688;2023-06-14T09:51:24;1.20;;;1.02;;
16416;SDS011;8317;52.186;5.688;2023-06-14T09:53:51;1.60;;;1.13;;
16416;SDS011;8317;52.186;5.688;2023-06-14T09:56:20;2.75;;;1.10;;
16416;SDS011;8317;52.186;5.688;2023-06-14T09:58:54;4.07;;;1.80;;
16416;SDS011;8317;52.186;5.688;2023-06-14T10:01:24;2.83;;;1.40;;
16416;SDS011;8317;52.186;5.688;2023-06-14T10:03:52;1.35;;;1.10;;
16416;SDS011;8317;52.186;5.688;2023-06-14T10:06:22;1.27;;;1.17;;
16416;SDS011;8317;52.186;5.688;2023-06-14T10:08:51;1.88;;;0.80;;
16416;SDS011;8317;52.186;5.688;2023-06-14T10:11:20;0.93;;;0.88;;
16416;SDS011;8317;52.186;5.688;2023-06-14T10:13:47;1.33;;;1.20;;
16416;SDS011;8317;52.186;5.688;2023-06-14T10:16:16;2.10;;;1.02;;
16416;SDS011;8317;52.186;5.688;2023-06-14T10:18:49;2.95;;;1.75;;
16416;SDS011;8317;52.186;5.688;2023-06-14T10:21:22;1.13;;;0.95;;
16416;SDS011;8317;52.186;5.688;2023-06-14T10:23:52;3.30;;;0.80;;
16416;SDS011;8317;52.186;5.688;2023-06-14T10:26:19;0.88;;;0.88;;
16416;SDS011;8317;52.186;5.688;2023-06-14T10:28:57;1.40;;;1.30;;
16416;SDS011;8317;52.186;5.688;2023-06-14T10:31:41;2.15;;;1.45;;
16416;SDS011;8317;52.186;5.688;2023-06-14T10:34:11;1.45;;;1.02;;
16416;SDS011;8317;52.186;5.688;2023-06-14T10:36:40;1.75;;;1.00;;
16416;SDS011;8317;52.186;5.688;2023-06-14T10:39:11;4.70;;;1.02;;
16416;SDS011;8317;52.186;5.688;2023-06-14T10:41:42;3.05;;;1.40;;
16416;SDS011;8317;52.186;5.688;2023-06-14T10:44:33;1.10;;;1.00;;
16416;SDS011;8317;52.186;5.688;2023-06-14T10:47:08;2.00;;;1.30;;
16416;SDS011;8317;52.186;5.688;2023-06-14T10:49:38;1.15;;;0.90;;
16416;SDS011;8317;52.186;5.688;2023-06-14T10:52:10;1.98;;;0.95;;
16416;SDS011;8317;52.186;5.688;2023-06-14T10:55:04;1.38;;;0.98;;
16416;SDS011;8317;52.186;5.688;2023-06-14T10:57:36;2.38;;;1.38;;
16416;SDS011;8317;52.186;5.688;2023-06-14T11:00:04;4.15;;;1.27;;
16416;SDS011;8317;52.186;5.688;2023-06-14T11:05:50;2.95;;;1.00;;
16416;SDS011;8317;52.186;5.688;2023-06-14T11:08:32;2.80;;;1.30;;
16416;SDS011;8317;52.186;5.688;2023-06-14T11:11:15;0.82;;;0.82;;
16416;SDS011;8317;52.186;5.688;2023-06-14T11:13:43;1.80;;;1.17;;
16416;SDS011;8317;52.186;5.688;2023-06-14T11:16:12;4.35;;;1.17;;
16416;SDS011;8317;52.186;5.688;2023-06-14T11:18:40;1.48;;;0.95;;
16416;SDS011;8317;52.186;5.688;2023-06-14T11:21:08;5.18;;;1.13;;
16416;SDS011;8317;52.186;5.688;2023-06-14T11:23:35;1.38;;;1.00;;
16416;SDS011;8317;52.186;5.688;2023-06-14T11:26:03;1.65;;;1.13;;
16416;SDS011;8317;52.186;5.688;2023-06-14T11:28:37;1.00;;;0.90;;
16416;SDS011;8317;52.186;5.688;2023-06-14T11:31:04;0.82;;;0.80;;
16416;SDS011;8317;52.186;5.688;2023-06-14T11:33:31;1.17;;;1.02;;
16416;SDS011;8317;52.186;5.688;2023-06-14T11:35:58;2.65;;;1.27;;
16416;SDS011;8317;52.186;5.688;2023-06-14T11:38:28;4.32;;;1.17;;
16416;SDS011;8317;52.186;5.688;2023-06-14T11:40:58;16.35;;;2.85;;
16416;SDS011;8317;52.186;5.688;2023-06-14T11:43:25;6.35;;;1.45;;
16416;SDS011;8317;52.186;5.688;2023-06-14T11:45:52;2.85;;;1.00;;
16416;SDS011;8317;52.186;5.688;2023-06-14T11:48:19;1.67;;;1.25;;
16416;SDS011;8317;52.186;5.688;2023-06-14T11:50:49;11.43;;;1.42;;
16416;SDS011;8317;52.186;5.688;2023-06-14T11:53:16;3.20;;;1.30;;
16416;SDS011;8317;52.186;5.688;2023-06-14T11:55:45;2.22;;;1.17;;
16416;SDS011;8317;52.186;5.688;2023-06-14T11:58:12;1.75;;;1.10;;
16416;SDS011;8317;52.186;5.688;2023-06-14T12:00:40;3.15;;;1.10;;
16416;SDS011;8317;52.186;5.688;2023-06-14T12:03:07;4.75;;;1.10;;
16416;SDS011;8317;52.186;5.688;2023-06-14T12:05:34;1.00;;;1.00;;
16416;SDS011;8317;52.186;5.688;2023-06-14T12:08:02;0.90;;;0.90;;
16416;SDS011;8317;52.186;5.688;2023-06-14T12:10:39;0.90;;;0.90;;
16416;SDS011;8317;52.186;5.688;2023-06-14T12:13:10;2.05;;;1.20;;
16416;SDS011;8317;52.186;5.688;2023-06-14T12:15:36;3.90;;;1.30;;
16416;SDS011;8317;52.186;5.688;2023-06-14T12:18:05;2.05;;;1.00;;
16416;SDS011;8317;52.186;5.688;2023-06-14T12:20:33;1.10;;;1.00;;
16416;SDS011;8317;52.186;5.688;2023-06-14T12:23:02;1.35;;;1.25;;
16416;SDS011;8317;52.186;5.688;2023-06-14T12:25:30;3.10;;;1.75;;
16416;SDS011;8317;52.186;5.688;2023-06-14T12:27:59;1.15;;;1.05;;
16416;SDS011;8317;52.186;5.688;2023-06-14T12:30:31;1.70;;;0.95;;
16416;SDS011;8317;52.186;5.688;2023-06-14T12:32:58;2.20;;;1.20;;
16416;SDS011;8317;52.186;5.688;2023-06-14T12:35:25;2.83;;;1.15;;
16416;SDS011;8317;52.186;5.688;2023-06-14T12:37:52;1.38;;;1.27;;
16416;SDS011;8317;52.186;5.688;2023-06-14T12:40:19;3.70;;;1.15;;
16416;SDS011;8317;52.186;5.688;2023-06-14T12:42:46;1.20;;;1.10;;
16416;SDS011;8317;52.186;5.688;2023-06-14T12:45:13;1.50;;;1.15;;
16416;SDS011;8317;52.186;5.688;2023-06-14T12:47:42;5.10;;;1.48;;
16416;SDS011;8317;52.186;5.688;2023-06-14T12:50:08;2.88;;;1.30;;
16416;SDS011;8317;52.186;5.688;2023-06-14T12:52:36;4.18;;;0.98;;
16416;SDS011;8317;52.186;5.688;2023-06-14T12:55:03;3.65;;;1.50;;
16416;SDS011;8317;52.186;5.688;2023-06-14T12:57:31;1.02;;;0.95;;
16416;SDS011;8317;52.186;5.688;2023-06-14T13:00:01;2.53;;;1.27;;
16416;SDS011;8317;52.186;5.688;2023-06-14T13:02:30;1.15;;;0.82;;
16416;SDS011;8317;52.186;5.688;2023-06-14T13:04:59;1.15;;;1.00;;
16416;SDS011;8317;52.186;5.688;2023-06-14T13:07:28;1.70;;;1.10;;
16416;SDS011;8317;52.186;5.688;2023-06-14T13:09:55;2.35;;;1.27;;
16416;SDS011;8317;52.186;5.688;2023-06-14T13:12:22;1.05;;;0.80;;
16416;SDS011;8317;52.186;5.688;2023-06-14T13:14:50;2.28;;;1.15;;
16416;SDS011;8317;52.186;5.688;2023-06-14T13:17:17;2.05;;;1.02;;
16416;SDS011;8317;52.186;5.688;2023-06-14T13:19:43;1.50;;;0.90;;
16416;SDS011;8317;52.186;5.688;2023-06-14T13:22:12;1.27;;;1.17;;
16416;SDS011;8317;52.186;5.688;2023-06-14T13:24:39;0.88;;;0.88;;
16416;SDS011;8317;52.186;5.688;2023-06-14T13:27:06;1.65;;;0.90;;
16416;SDS011;8317;52.186;5.688;2023-06-14T13:29:33;0.77;;;0.77;;
16416;SDS011;8317;52.186;5.688;2023-06-14T13:32:01;1.50;;;1.10;;
16416;SDS011;8317;52.186;5.688;2023-06-14T13:34:27;0.90;;;0.90;;
16416;SDS011;8317;52.186;5.688;2023-06-14T13:36:54;1.13;;;1.02;;
16416;SDS011;8317;52.186;5.688;2023-06-14T13:39:25;1.52;;;1.15;;
16416;SDS011;8317;52.186;5.688;2023-06-14T13:41:52;1.02;;;1.02;;
16416;SDS011;8317;52.186;5.688;2023-06-14T13:44:19;0.80;;;0.80;;
16416;SDS011;8317;52.186;5.688;2023-06-14T13:46:46;0.98;;;0.90;;
16416;SDS011;8317;52.186;5.688;2023-06-14T13:49:13;1.02;;;0.93;;
16416;SDS011;8317;52.186;5.688;2023-06-14T13:51:40;1.38;;;1.17;;
16416;SDS011;8317;52.186;5.688;2023-06-14T13:54:07;2.05;;;0.82;;
16416;SDS011;8317;52.186;5.688;2023-06-14T13:56:35;2.88;;;1.05;;
16416;SDS011;8317;52.186;5.688;2023-06-14T13:59:03;3.63;;;1.20;;
16416;SDS011;8317;52.186;5.688;2023-06-14T14:01:29;1.55;;;1.00;;
16416;SDS011;8317;52.186;5.688;2023-06-14T14:03:56;4.45;;;1.45;;
16416;SDS011;8317;52.186;5.688;2023-06-14T14:06:25;1.08;;;0.98;;
16416;SDS011;8317;52.186;5.688;2023-06-14T14:08:52;3.10;;;1.00;;
16416;SDS011;8317;52.186;5.688;2023-06-14T14:11:19;2.25;;;1.25;;
16416;SDS011;8317;52.186;5.688;2023-06-14T14:13:47;1.95;;;1.13;;
16416;SDS011;8317;52.186;5.688;2023-06-14T14:16:14;2.75;;;1.30;;
16416;SDS011;8317;52.186;5.688;2023-06-14T14:18:42;1.15;;;0.93;;
16416;SDS011;8317;52.186;5.688;2023-06-14T14:21:09;2.55;;;0.82;;
16416;SDS011;8317;52.186;5.688;2023-06-14T14:23:36;1.92;;;1.23;;
16416;SDS011;8317;52.186;5.688;2023-06-14T14:26:03;5.18;;;1.67;;
16416;SDS011;8317;52.186;5.688;2023-06-14T14:28:30;1.55;;;1.45;;
16416;SDS011;8317;52.186;5.688;2023-06-14T14:30:59;1.33;;;0.90;;
16416;SDS011;8317;52.186;5.688;2023-06-14T14:33:25;0.88;;;0.88;;
16416;SDS011;8317;52.186;5.688;2023-06-14T14:35:52;2.45;;;0.75;;
16416;SDS011;8317;52.186;5.688;2023-06-14T14:38:19;1.42;;;1.05;;
16416;SDS011;8317;52.186;5.688;2023-06-14T14:40:46;1.40;;;1.13;;
16416;SDS011;8317;52.186;5.688;2023-06-14T14:43:13;1.23;;;1.13;;
16416;SDS011;8317;52.186;5.688;2023-06-14T14:45:40;1.10;;;0.90;;
16416;SDS011;8317;52.186;5.688;2023-06-14T14:48:08;1.10;;;0.82;;
16416;SDS011;8317;52.186;5.688;2023-06-14T14:50:35;1.17;;;1.00;;
16416;SDS011;8317;52.186;5.688;2023-06-14T14:53:02;0.80;;;0.80;;
16416;SDS011;8317;52.186;5.688;2023-06-14T14:55:29;3.22;;;1.00;;
16416;SDS011;8317;52.186;5.688;2023-06-14T14:57:57;3.80;;;1.05;;
16416;SDS011;8317;52.186;5.688;2023-06-14T15:00:24;5.20;;;0.93;;
16416;SDS011;8317;52.186;5.688;2023-06-14T15:02:51;0.90;;;0.80;;
16416;SDS011;8317;52.186;5.688;2023-06-14T15:05:19;1.15;;;1.05;;
16416;SDS011;8317;52.186;5.688;2023-06-14T15:07:46;1.95;;;0.95;;
16416;SDS011;8317;52.186;5.688;2023-06-14T15:10:13;1.10;;;1.00;;